Time;durP1;ratioP1;P1;durP2;ratioP2;P2;SDS_P1;SDS_P2;PMS_P1;PMS_P2;Temp;Humidity;BMP_temperature;BMP_pressure;BME280_temperature;BME280_humidity;BME280_pressure;Samples;Min_cycle;Max_cycle;Signal;HPM_P1;HPM_P2
2022/10/28 00:01:14;;;;;;;1.30;1.20;;;;;;;;;;5096682;28;20290;-64
2022/10/28 00:03:44;;;;;;;1.40;1.30;;;;;;;;;;5096531;28;20557;-65
2022/10/28 00:06:13;;;;;;;1.48;1.38;;;;;;;;;;5096588;28;20219;-64
2022/10/28 00:08:41;;;;;;;1.42;1.33;;;;;;;;;;5095847;28;20314;-65
2022/10/28 00:11:10;;;;;;;1.48;1.38;;;;;;;;;;5081409;28;20192;-66
2022/10/28 00:13:39;;;;;;;1.50;1.40;;;;;;;;;;5096806;28;20598;-65
2022/10/28 00:16:08;;;;;;;1.60;1.30;;;;;;;;;;5095737;28;20223;-65
2022/10/28 00:18:36;;;;;;;1.70;1.60;;;;;;;;;;5096386;28;20199;-65
2022/10/28 00:21:06;;;;;;;1.30;1.20;;;;;;;;;;5095854;28;20221;-65
2022/10/28 00:23:34;;;;;;;1.50;1.40;;;;;;;;;;5091608;28;20574;-65
2022/10/28 00:26:06;;;;;;;1.40;1.30;;;;;;;;;;5097143;28;20203;-65
2022/10/28 00:28:34;;;;;;;1.40;1.30;;;;;;;;;;5096923;28;20314;-65
2022/10/28 00:31:06;;;;;;;1.40;1.30;;;;;;;;;;5097669;28;20207;-64
2022/10/28 00:33:34;;;;;;;1.45;1.35;;;;;;;;;;5097241;28;20575;-64
2022/10/28 00:36:10;;;;;;;1.30;1.20;;;;;;;;;;5097511;28;20204;-64
2022/10/28 00:38:38;;;;;;;1.40;1.30;;;;;;;;;;5097118;28;20196;-64
2022/10/28 00:41:06;;;;;;;1.30;1.20;;;;;;;;;;5097281;28;20294;-65
2022/10/28 00:43:38;;;;;;;1.63;1.30;;;;;;;;;;5097107;28;20214;-64
2022/10/28 00:46:08;;;;;;;1.30;1.20;;;;;;;;;;5099001;28;20246;-64
2022/10/28 00:48:40;;;;;;;1.60;1.50;;;;;;;;;;5100396;28;20634;-64
2022/10/28 00:51:09;;;;;;;1.38;1.27;;;;;;;;;;5100727;28;20204;-64
2022/10/28 00:53:38;;;;;;;1.23;1.23;;;;;;;;;;5101095;28;20458;-64
2022/10/28 00:56:07;;;;;;;1.35;1.25;;;;;;;;;;5100825;28;20578;-64
2022/10/28 00:58:35;;;;;;;1.45;1.35;;;;;;;;;;5100705;28;20582;-64
2022/10/28 01:01:03;;;;;;;1.30;1.20;;;;;;;;;;5100621;28;20230;-64
2022/10/28 01:03:31;;;;;;;1.38;1.27;;;;;;;;;;5100831;28;20203;-64
2022/10/28 01:05:59;;;;;;;1.50;1.40;;;;;;;;;;5100888;28;20239;-64
2022/10/28 01:08:27;;;;;;;1.50;1.40;;;;;;;;;;5100288;28;20253;-64
2022/10/28 01:11:22;;;;;;;1.50;1.40;;;;;;;;;;5100579;28;20208;-64
2022/10/28 01:14:00;;;;;;;1.58;1.48;;;;;;;;;;5053915;28;20586;-63
2022/10/28 01:16:34;;;;;;;1.40;1.30;;;;;;;;;;5100533;28;20292;-63
2022/10/28 01:19:13;;;;;;;1.35;1.25;;;;;;;;;;5099971;28;20203;-63
2022/10/28 01:21:53;;;;;;;1.27;1.17;;;;;;;;;;5100517;28;20204;-64
2022/10/28 01:24:27;;;;;;;1.50;1.40;;;;;;;;;;5100232;28;20306;-64
2022/10/28 01:27:09;;;;;;;1.40;1.30;;;;;;;;;;5099918;28;20290;-64
2022/10/28 01:29:50;;;;;;;1.50;1.40;;;;;;;;;;5100027;28;20327;-64
2022/10/28 01:32:25;;;;;;;1.40;1.30;;;;;;;;;;5100096;28;20256;-64
2022/10/28 01:34:56;;;;;;;1.60;1.40;;;;;;;;;;5099404;28;20199;-64
2022/10/28 01:37:29;;;;;;;1.70;1.60;;;;;;;;;;5099950;28;20551;-64
2022/10/28 01:40:04;;;;;;;1.52;1.40;;;;;;;;;;5100336;28;21185;-64
2022/10/28 01:42:33;;;;;;;1.45;1.35;;;;;;;;;;5099833;28;20204;-64
2022/10/28 01:45:04;;;;;;;1.60;1.50;;;;;;;;;;5099640;28;20246;-64
2022/10/28 01:47:36;;;;;;;1.75;1.65;;;;;;;;;;5099690;28;20579;-64
2022/10/28 01:50:05;;;;;;;1.50;1.20;;;;;;;;;;5099771;28;20235;-65
2022/10/28 01:52:33;;;;;;;1.58;1.48;;;;;;;;;;5099951;28;20204;-64
2022/10/28 01:55:04;;;;;;;1.40;1.30;;;;;;;;;;5099369;28;20200;-64
2022/10/28 01:57:33;;;;;;;1.48;1.38;;;;;;;;;;5099428;28;20314;-64
2022/10/28 02:00:01;;;;;;;1.58;1.48;;;;;;;;;;5099626;28;20249;-65
2022/10/28 02:02:33;;;;;;;1.40;1.30;;;;;;;;;;5099378;28;20493;-64
2022/10/28 02:05:05;;;;;;;1.50;1.40;;;;;;;;;;5099187;28;20230;-63
2022/10/28 02:07:33;;;;;;;1.40;1.30;;;;;;;;;;5099242;28;20599;-64
2022/10/28 02:10:04;;;;;;;1.50;1.40;;;;;;;;;;5099425;28;20228;-64
2022/10/28 02:12:34;;;;;;;1.50;1.40;;;;;;;;;;5099609;28;20254;-64
2022/10/28 02:15:08;;;;;;;1.58;1.48;;;;;;;;;;5099178;28;20278;-64
2022/10/28 02:17:45;;;;;;;1.45;1.35;;;;;;;;;;5099338;28;20259;-64
2022/10/28 02:20:19;;;;;;;1.92;1.58;;;;;;;;;;5099076;28;20207;-64
2022/10/28 02:22:48;;;;;;;1.40;1.30;;;;;;;;;;5099543;28;20238;-64
2022/10/28 02:25:17;;;;;;;1.65;1.45;;;;;;;;;;5098685;28;20203;-64
2022/10/28 02:27:50;;;;;;;1.50;1.40;;;;;;;;;;5099258;28;20210;-64
2022/10/28 02:30:20;;;;;;;1.45;1.35;;;;;;;;;;5099084;28;20231;-64
2022/10/28 02:32:51;;;;;;;1.52;1.42;;;;;;;;;;5098903;28;20618;-64
2022/10/28 02:35:23;;;;;;;1.70;1.50;;;;;;;;;;5098404;28;20199;-64
2022/10/28 02:37:52;;;;;;;1.60;1.50;;;;;;;;;;5099083;28;20624;-64
2022/10/28 02:40:22;;;;;;;1.50;1.40;;;;;;;;;;5099195;28;20199;-64
2022/10/28 02:42:53;;;;;;;1.58;1.48;;;;;;;;;;5099120;28;20266;-65
2022/10/28 02:45:22;;;;;;;1.50;1.40;;;;;;;;;;5098740;28;20298;-64
2022/10/28 02:47:53;;;;;;;1.80;1.60;;;;;;;;;;5098860;28;20239;-64
2022/10/28 02:50:23;;;;;;;1.40;1.30;;;;;;;;;;5098850;28;20227;-64
2022/10/28 02:52:52;;;;;;;1.45;1.35;;;;;;;;;;5099002;28;20269;-64
2022/10/28 02:55:21;;;;;;;1.50;1.40;;;;;;;;;;5098325;28;20563;-64
2022/10/28 02:57:49;;;;;;;1.50;1.40;;;;;;;;;;5098008;28;20200;-64
2022/10/28 03:00:18;;;;;;;1.30;1.20;;;;;;;;;;5098726;28;20211;-64
2022/10/28 03:02:46;;;;;;;1.48;1.38;;;;;;;;;;5098315;28;20210;-64
2022/10/28 03:05:16;;;;;;;1.70;1.60;;;;;;;;;;5098683;28;20207;-64
2022/10/28 03:07:43;;;;;;;1.35;1.25;;;;;;;;;;5098335;28;20302;-64
2022/10/28 03:10:11;;;;;;;1.83;1.65;;;;;;;;;;5097045;28;20299;-64
2022/10/28 03:12:39;;;;;;;1.60;1.50;;;;;;;;;;5098576;28;20219;-64
2022/10/28 03:15:07;;;;;;;1.98;1.75;;;;;;;;;;5098752;28;20246;-64
2022/10/28 03:17:34;;;;;;;1.55;1.45;;;;;;;;;;5098593;28;20516;-64
2022/10/28 03:20:02;;;;;;;1.48;1.38;;;;;;;;;;5098089;28;20207;-64
2022/10/28 03:22:31;;;;;;;1.50;1.40;;;;;;;;;;5097756;28;20235;-64
2022/10/28 03:24:59;;;;;;;1.52;1.42;;;;;;;;;;5097566;28;20203;-64
2022/10/28 03:27:27;;;;;;;1.50;1.40;;;;;;;;;;5097517;28;20287;-64
2022/10/28 03:29:55;;;;;;;1.75;1.38;;;;;;;;;;5097810;28;20227;-64
2022/10/28 03:32:23;;;;;;;1.42;1.33;;;;;;;;;;5097904;28;20575;-64
2022/10/28 03:34:51;;;;;;;1.70;1.60;;;;;;;;;;5098243;28;20295;-64
2022/10/28 03:37:18;;;;;;;1.50;1.40;;;;;;;;;;5097770;28;20208;-64
2022/10/28 03:39:48;;;;;;;1.58;1.48;;;;;;;;;;5097941;28;20497;-64
2022/10/28 03:42:15;;;;;;;1.70;1.60;;;;;;;;;;5097898;28;20203;-64
2022/10/28 03:44:43;;;;;;;1.50;1.40;;;;;;;;;;5097563;28;20195;-64
2022/10/28 03:47:11;;;;;;;1.55;1.45;;;;;;;;;;5097828;28;20203;-64
2022/10/28 03:49:39;;;;;;;1.40;1.30;;;;;;;;;;5097435;28;20234;-64
2022/10/28 03:52:07;;;;;;;1.52;1.42;;;;;;;;;;5097681;28;20214;-64
2022/10/28 03:54:35;;;;;;;1.42;1.33;;;;;;;;;;5097762;28;20204;-64
2022/10/28 03:57:04;;;;;;;1.75;1.60;;;;;;;;;;5097530;28;20236;-64
2022/10/28 03:59:32;;;;;;;1.48;1.38;;;;;;;;;;5097586;28;20636;-64
2022/10/28 04:01:59;;;;;;;1.50;1.40;;;;;;;;;;5097243;28;20208;-65
2022/10/28 04:04:27;;;;;;;1.50;1.40;;;;;;;;;;5097158;28;20231;-65
2022/10/28 04:06:54;;;;;;;1.30;1.20;;;;;;;;;;5096971;28;20517;-66
2022/10/28 04:09:22;;;;;;;1.42;1.33;;;;;;;;;;5096549;28;20595;-65
2022/10/28 04:11:51;;;;;;;1.60;1.50;;;;;;;;;;5096873;28;20276;-64
2022/10/28 04:14:20;;;;;;;1.42;1.33;;;;;;;;;;5097236;28;20268;-64
2022/10/28 04:16:47;;;;;;;1.50;1.40;;;;;;;;;;5097352;28;20343;-64
2022/10/28 04:19:14;;;;;;;1.65;1.55;;;;;;;;;;5097075;28;20529;-64
2022/10/28 04:21:42;;;;;;;1.50;1.40;;;;;;;;;;5100776;28;20204;-64
2022/10/28 04:24:10;;;;;;;1.40;1.30;;;;;;;;;;5101072;28;20243;-64
2022/10/28 04:26:37;;;;;;;1.45;1.35;;;;;;;;;;5100974;28;20250;-64
2022/10/28 04:29:05;;;;;;;1.40;1.30;;;;;;;;;;5100106;28;20622;-64
2022/10/28 04:31:33;;;;;;;1.20;1.10;;;;;;;;;;5100843;28;20318;-64
2022/10/28 04:34:01;;;;;;;1.40;1.30;;;;;;;;;;5100555;28;20282;-64
2022/10/28 04:36:28;;;;;;;1.30;1.20;;;;;;;;;;5101016;28;20460;-64
2022/10/28 04:38:56;;;;;;;1.40;1.30;;;;;;;;;;5100673;28;20314;-64
2022/10/28 04:41:23;;;;;;;1.50;1.40;;;;;;;;;;5100870;28;20234;-64
2022/10/28 04:43:51;;;;;;;1.30;1.20;;;;;;;;;;5100216;28;20633;-64
2022/10/28 04:46:18;;;;;;;1.45;1.35;;;;;;;;;;5099634;28;20334;-64
2022/10/28 04:48:49;;;;;;;1.45;1.35;;;;;;;;;;5099754;28;20203;-64
2022/10/28 04:51:16;;;;;;;1.30;1.20;;;;;;;;;;5099592;28;20223;-64
2022/10/28 04:53:43;;;;;;;1.48;1.38;;;;;;;;;;5099844;28;20286;-65
2022/10/28 04:56:11;;;;;;;1.30;1.20;;;;;;;;;;5100681;28;20299;-65
2022/10/28 04:58:38;;;;;;;1.35;1.25;;;;;;;;;;5099841;28;20243;-65
2022/10/28 05:01:07;;;;;;;1.30;1.20;;;;;;;;;;5099281;28;20227;-64
2022/10/28 05:03:34;;;;;;;1.23;1.13;;;;;;;;;;5099384;28;20214;-64
2022/10/28 05:06:03;;;;;;;1.40;1.30;;;;;;;;;;5099729;28;20203;-65
2022/10/28 05:08:31;;;;;;;1.10;1.10;;;;;;;;;;5099179;28;20298;-65
2022/10/28 05:10:58;;;;;;;1.48;1.38;;;;;;;;;;5100068;28;20288;-65
2022/10/28 05:13:25;;;;;;;1.40;1.30;;;;;;;;;;5099571;28;20247;-65
2022/10/28 05:15:53;;;;;;;1.40;1.30;;;;;;;;;;5099416;28;20262;-65
2022/10/28 05:18:20;;;;;;;1.23;1.15;;;;;;;;;;5099018;28;20199;-66
2022/10/28 05:20:53;;;;;;;1.40;1.30;;;;;;;;;;5099661;28;20200;-65
2022/10/28 05:23:22;;;;;;;1.30;1.10;;;;;;;;;;5099855;28;20212;-64
2022/10/28 05:25:50;;;;;;;1.20;1.15;;;;;;;;;;5099571;28;20435;-65
2022/10/28 05:28:17;;;;;;;1.30;1.20;;;;;;;;;;5099119;28;20246;-65
2022/10/28 05:30:45;;;;;;;1.00;1.00;;;;;;;;;;5099687;28;20257;-64
2022/10/28 05:33:12;;;;;;;1.15;1.05;;;;;;;;;;5098001;28;20293;-64
2022/10/28 05:35:40;;;;;;;1.30;1.20;;;;;;;;;;5099364;28;20215;-64
2022/10/28 05:38:08;;;;;;;1.38;1.27;;;;;;;;;;5098979;28;20646;-64
2022/10/28 05:40:37;;;;;;;1.40;1.30;;;;;;;;;;5098691;28;20345;-65
2022/10/28 05:43:04;;;;;;;1.20;1.10;;;;;;;;;;5099217;28;20204;-64
2022/10/28 05:45:32;;;;;;;1.30;1.20;;;;;;;;;;5098398;28;20304;-64
2022/10/28 05:48:00;;;;;;;1.50;1.40;;;;;;;;;;5099305;28;20204;-64
2022/10/28 05:50:28;;;;;;;1.90;1.35;;;;;;;;;;5098897;28;20227;-63
2022/10/28 05:52:56;;;;;;;3.72;1.33;;;;;;;;;;5098817;28;20270;-63
2022/10/28 05:55:24;;;;;;;3.17;1.63;;;;;;;;;;5098479;28;20207;-63
2022/10/28 05:57:53;;;;;;;1.33;1.23;;;;;;;;;;5098593;28;20239;-65
2022/10/28 06:00:21;;;;;;;1.40;1.30;;;;;;;;;;5097888;28;20203;-64
2022/10/28 06:02:49;;;;;;;2.10;1.27;;;;;;;;;;5098565;28;20307;-64
2022/10/28 06:05:16;;;;;;;1.33;1.23;;;;;;;;;;5097309;28;20208;-65
2022/10/28 06:07:44;;;;;;;1.98;1.35;;;;;;;;;;5098182;28;20203;-65
2022/10/28 06:10:11;;;;;;;1.98;1.10;;;;;;;;;;5098190;28;20714;-65
2022/10/28 06:12:39;;;;;;;1.35;1.25;;;;;;;;;;5096863;28;20227;-65
2022/10/28 06:15:09;;;;;;;1.95;1.30;;;;;;;;;;5097883;28;20204;-64
2022/10/28 06:17:36;;;;;;;1.30;1.20;;;;;;;;;;5097759;28;20325;-64
2022/10/28 06:20:05;;;;;;;1.70;1.20;;;;;;;;;;5098056;28;20225;-64
2022/10/28 06:22:32;;;;;;;1.58;1.15;;;;;;;;;;5097933;28;20540;-65
2022/10/28 06:25:00;;;;;;;2.55;1.17;;;;;;;;;;5098127;28;20239;-65
2022/10/28 06:27:27;;;;;;;2.58;1.30;;;;;;;;;;5098091;28;20239;-64
2022/10/28 06:29:55;;;;;;;2.17;1.20;;;;;;;;;;5097606;28;20200;-64
2022/10/28 06:32:24;;;;;;;1.63;1.13;;;;;;;;;;5097276;28;20216;-64
2022/10/28 06:34:51;;;;;;;1.48;1.20;;;;;;;;;;5097787;28;20243;-65
2022/10/28 06:37:19;;;;;;;1.73;1.30;;;;;;;;;;5096803;28;20389;-65
2022/10/28 06:39:50;;;;;;;1.30;1.20;;;;;;;;;;5097498;28;20227;-64
2022/10/28 06:42:17;;;;;;;1.55;1.30;;;;;;;;;;5097884;28;20207;-65
2022/10/28 06:44:45;;;;;;;1.30;1.20;;;;;;;;;;5097292;28;20302;-64
2022/10/28 06:47:12;;;;;;;2.47;1.13;;;;;;;;;;5097369;28;20207;-65
2022/10/28 06:49:41;;;;;;;1.73;1.10;;;;;;;;;;5097367;28;20720;-65
2022/10/28 06:52:08;;;;;;;2.17;1.10;;;;;;;;;;5097236;28;20318;-64
2022/10/28 06:54:36;;;;;;;2.03;1.10;;;;;;;;;;5096938;28;20235;-65
2022/10/28 06:57:04;;;;;;;1.23;1.13;;;;;;;;;;5097015;28;20203;-66
2022/10/28 06:59:31;;;;;;;1.77;1.40;;;;;;;;;;5095890;28;20699;-64
2022/10/28 07:01:59;;;;;;;1.50;1.20;;;;;;;;;;5096819;28;20294;-65
2022/10/28 07:04:26;;;;;;;1.73;1.38;;;;;;;;;;5096775;28;20239;-64
2022/10/28 07:06:57;;;;;;;1.30;1.20;;;;;;;;;;5097656;28;20310;-64
2022/10/28 07:09:24;;;;;;;1.33;0.90;;;;;;;;;;5097109;28;20203;-65
2022/10/28 07:11:52;;;;;;;1.42;1.20;;;;;;;;;;5096805;28;20314;-65
2022/10/28 07:14:19;;;;;;;1.95;1.40;;;;;;;;;;5096152;28;20196;-65
2022/10/28 07:16:46;;;;;;;1.42;1.20;;;;;;;;;;5096786;28;20279;-65
2022/10/28 07:19:14;;;;;;;1.38;1.05;;;;;;;;;;5096398;28;20249;-65
2022/10/28 07:21:42;;;;;;;1.48;1.20;;;;;;;;;;5096643;28;20199;-65
2022/10/28 07:24:11;;;;;;;1.30;1.20;;;;;;;;;;5095965;28;20252;-64
2022/10/28 07:26:38;;;;;;;1.42;1.30;;;;;;;;;;5095135;28;20206;-65
2022/10/28 07:29:06;;;;;;;1.40;1.30;;;;;;;;;;5096735;28;20293;-65
2022/10/28 07:31:33;;;;;;;1.45;1.35;;;;;;;;;;5096347;28;20596;-64
2022/10/28 07:34:01;;;;;;;1.52;1.15;;;;;;;;;;5096288;28;20298;-64
2022/10/28 07:36:28;;;;;;;1.40;1.30;;;;;;;;;;5095771;28;20510;-65
2022/10/28 07:38:56;;;;;;;1.35;1.10;;;;;;;;;;5096421;28;20304;-64
2022/10/28 07:41:25;;;;;;;1.20;1.10;;;;;;;;;;5096597;28;20438;-65
2022/10/28 07:43:52;;;;;;;1.30;1.20;;;;;;;;;;5095620;28;20307;-65
2022/10/28 07:46:20;;;;;;;1.30;1.20;;;;;;;;;;5096421;28;20253;-65
2022/10/28 07:48:47;;;;;;;1.35;1.15;;;;;;;;;;5096163;28;20667;-65
2022/10/28 07:51:15;;;;;;;1.30;1.20;;;;;;;;;;5095340;28;20306;-64
2022/10/28 07:53:43;;;;;;;1.30;1.20;;;;;;;;;;5093521;28;20196;-65
2022/10/28 07:56:13;;;;;;;1.92;1.20;;;;;;;;;;5094521;28;20265;-64
2022/10/28 07:58:42;;;;;;;1.42;1.13;;;;;;;;;;5095939;28;20210;-65
2022/10/28 08:01:10;;;;;;;1.20;1.10;;;;;;;;;;5096129;28;20223;-65
2022/10/28 08:03:38;;;;;;;1.85;1.30;;;;;;;;;;5095572;28;20285;-64
2022/10/28 08:06:07;;;;;;;1.35;1.10;;;;;;;;;;5095654;28;20210;-65
2022/10/28 08:08:34;;;;;;;1.30;1.20;;;;;;;;;;5095582;28;20235;-65
2022/10/28 08:11:09;;;;;;;1.35;1.20;;;;;;;;;;5095243;28;20241;-66
2022/10/28 08:13:36;;;;;;;2.55;1.10;;;;;;;;;;5095915;28;20323;-64
2022/10/28 08:16:06;;;;;;;1.30;1.20;;;;;;;;;;5095221;28;20240;-65
2022/10/28 08:18:34;;;;;;;1.30;1.20;;;;;;;;;;5094933;28;20231;-64
2022/10/28 08:21:02;;;;;;;1.85;1.20;;;;;;;;;;5095026;28;20290;-63
2022/10/28 08:23:30;;;;;;;1.20;1.10;;;;;;;;;;5094593;28;20204;-64
2022/10/28 08:25:57;;;;;;;1.40;1.23;;;;;;;;;;5094993;28;20206;-63
2022/10/28 08:28:24;;;;;;;1.45;1.35;;;;;;;;;;5094999;28;20203;-63
2022/10/28 08:30:52;;;;;;;1.40;1.30;;;;;;;;;;5095171;28;20264;-63
2022/10/28 08:33:21;;;;;;;1.77;1.40;;;;;;;;;;5095132;28;20563;-64
2022/10/28 08:35:51;;;;;;;1.50;1.17;;;;;;;;;;5094750;28;20304;-63
2022/10/28 08:38:18;;;;;;;1.30;1.20;;;;;;;;;;5094898;28;20196;-64
2022/10/28 08:40:52;;;;;;;1.20;1.10;;;;;;;;;;5094704;28;20342;-63
2022/10/28 08:43:23;;;;;;;1.70;1.27;;;;;;;;;;5094975;28;20316;-64
2022/10/28 08:45:53;;;;;;;1.70;1.30;;;;;;;;;;5094707;28;20290;-64
2022/10/28 08:48:28;;;;;;;1.67;1.23;;;;;;;;;;5094666;28;20235;-65
2022/10/28 08:50:58;;;;;;;1.30;1.20;;;;;;;;;;5095094;28;20210;-64
2022/10/28 08:53:27;;;;;;;1.35;1.25;;;;;;;;;;5094826;28;20210;-65
2022/10/28 08:55:57;;;;;;;1.42;1.30;;;;;;;;;;5094470;28;20604;-65
2022/10/28 08:58:26;;;;;;;1.20;1.10;;;;;;;;;;5094722;28;20306;-65
2022/10/28 09:00:54;;;;;;;1.92;1.20;;;;;;;;;;5094387;28;20257;-65
2022/10/28 09:03:25;;;;;;;1.30;1.20;;;;;;;;;;5094484;28;20269;-63
2022/10/28 09:05:55;;;;;;;1.05;1.00;;;;;;;;;;5093662;28;20196;-64
2022/10/28 09:08:24;;;;;;;1.25;1.15;;;;;;;;;;5096830;28;20268;-64
2022/10/28 09:11:00;;;;;;;1.63;1.30;;;;;;;;;;5097795;28;20234;-64
2022/10/28 09:13:33;;;;;;;1.20;1.10;;;;;;;;;;5097711;28;20199;-64
2022/10/28 09:16:05;;;;;;;2.78;1.50;;;;;;;;;;5097293;28;20257;-64
2022/10/28 09:18:45;;;;;;;1.30;1.20;;;;;;;;;;5098016;28;20553;-65
2022/10/28 09:21:18;;;;;;;1.42;1.30;;;;;;;;;;5097288;28;20231;-65
2022/10/28 09:23:48;;;;;;;1.55;1.25;;;;;;;;;;5097554;28;20200;-64
2022/10/28 09:26:19;;;;;;;1.30;1.20;;;;;;;;;;5097244;28;20211;-64
2022/10/28 09:28:51;;;;;;;1.60;1.50;;;;;;;;;;5096911;28;20211;-64
2022/10/28 09:31:26;;;;;;;3.00;1.50;;;;;;;;;;5097736;28;20211;-64
2022/10/28 09:34:03;;;;;;;1.40;1.30;;;;;;;;;;5097247;28;20317;-64
2022/10/28 09:36:33;;;;;;;1.50;1.40;;;;;;;;;;5096376;28;20291;-64
2022/10/28 09:39:02;;;;;;;1.30;1.20;;;;;;;;;;5097342;28;20203;-64
2022/10/28 09:41:32;;;;;;;1.35;1.25;;;;;;;;;;5097642;28;20639;-64
2022/10/28 09:44:04;;;;;;;2.40;1.45;;;;;;;;;;5098462;28;20260;-64
2022/10/28 09:46:32;;;;;;;1.80;1.55;;;;;;;;;;5098060;28;20353;-64
2022/10/28 09:49:03;;;;;;;1.40;1.30;;;;;;;;;;5077464;28;20295;-64
2022/10/28 09:51:34;;;;;;;2.05;1.30;;;;;;;;;;5077347;28;20230;-65
2022/10/28 09:54:01;;;;;;;1.67;1.45;;;;;;;;;;5076535;28;20200;-64
2022/10/28 09:56:30;;;;;;;1.30;1.20;;;;;;;;;;5076367;28;20306;-64
2022/10/28 09:58:59;;;;;;;2.88;1.60;;;;;;;;;;5079817;28;20260;-64
2022/10/28 10:01:28;;;;;;;2.67;1.40;;;;;;;;;;5096254;28;20212;-64
2022/10/28 10:03:55;;;;;;;2.30;1.60;;;;;;;;;;5096139;28;20256;-64
2022/10/28 10:06:25;;;;;;;1.60;1.50;;;;;;;;;;5096297;28;20684;-64
2022/10/28 10:08:55;;;;;;;1.65;1.55;;;;;;;;;;5096143;28;20307;-64
2022/10/28 10:11:27;;;;;;;1.73;1.63;;;;;;;;;;5096542;28;20311;-64
2022/10/28 10:13:54;;;;;;;2.28;1.83;;;;;;;;;;5096115;28;20286;-64
2022/10/28 10:16:24;;;;;;;1.75;1.65;;;;;;;;;;5095946;28;20335;-64
2022/10/28 10:18:54;;;;;;;3.42;2.15;;;;;;;;;;5096014;28;20303;-64
2022/10/28 10:21:40;;;;;;;2.92;1.90;;;;;;;;;;5095765;28;20312;-64
2022/10/28 10:24:22;;;;;;;3.33;2.28;;;;;;;;;;5096121;28;20587;-71
2022/10/28 10:26:49;;;;;;;2.67;2.20;;;;;;;;;;5095550;28;20559;-64
2022/10/28 10:29:17;;;;;;;3.15;2.40;;;;;;;;;;5094638;28;20209;-64
2022/10/28 10:31:45;;;;;;;3.55;2.20;;;;;;;;;;5094763;28;20227;-65
2022/10/28 10:34:21;;;;;;;3.42;2.80;;;;;;;;;;5096451;28;20307;-64
2022/10/28 10:36:52;;;;;;;4.03;2.30;;;;;;;;;;5095664;28;20675;-65
2022/10/28 10:39:22;;;;;;;3.33;2.28;;;;;;;;;;5094657;28;20294;-65
2022/10/28 10:41:49;;;;;;;3.15;2.42;;;;;;;;;;5095112;28;20525;-65
2022/10/28 10:44:31;;;;;;;3.38;2.67;;;;;;;;;;5095957;28;20235;-65
2022/10/28 10:47:13;;;;;;;3.92;2.65;;;;;;;;;;5095831;28;20203;-64
2022/10/28 10:49:41;;;;;;;2.88;2.50;;;;;;;;;;5095738;28;20265;-65
2022/10/28 10:52:17;;;;;;;4.18;2.50;;;;;;;;;;5095201;28;20314;-65
2022/10/28 10:54:48;;;;;;;3.50;2.30;;;;;;;;;;5095009;28;20248;-65
2022/10/28 10:57:17;;;;;;;3.45;2.35;;;;;;;;;;5095792;28;20312;-65
2022/10/28 10:59:46;;;;;;;2.80;2.13;;;;;;;;;;5094587;28;20239;-65
2022/10/28 11:02:21;;;;;;;3.20;2.28;;;;;;;;;;5095165;28;20246;-65
2022/10/28 11:04:51;;;;;;;3.13;2.30;;;;;;;;;;5095754;28;20525;-65
2022/10/28 11:07:20;;;;;;;2.85;2.42;;;;;;;;;;5094716;28;20227;-65
2022/10/28 11:09:49;;;;;;;4.00;2.83;;;;;;;;;;5094823;28;20215;-65
2022/10/28 11:12:17;;;;;;;2.72;2.47;;;;;;;;;;5094804;28;20362;-65
2022/10/28 11:14:55;;;;;;;3.20;2.30;;;;;;;;;;5095194;28;20249;-64
2022/10/28 11:17:24;;;;;;;2.60;2.28;;;;;;;;;;5094429;28;20239;-65
2022/10/28 11:19:54;;;;;;;3.47;2.67;;;;;;;;;;5095009;28;20494;-65
2022/10/28 11:22:27;;;;;;;2.95;2.30;;;;;;;;;;5094784;28;20200;-65
2022/10/28 11:25:21;;;;;;;5.22;2.80;;;;;;;;;;5094783;28;20199;-65
2022/10/28 11:27:52;;;;;;;2.95;2.50;;;;;;;;;;5073592;28;20595;-65
2022/10/28 11:30:21;;;;;;;2.85;2.30;;;;;;;;;;5073756;28;20196;-65
2022/10/28 11:32:59;;;;;;;2.72;2.40;;;;;;;;;;5074758;28;20679;-65
2022/10/28 11:35:36;;;;;;;2.95;2.50;;;;;;;;;;5081720;28;20199;-64
2022/10/28 11:38:13;;;;;;;2.78;2.30;;;;;;;;;;5095019;28;20231;-64
2022/10/28 11:40:45;;;;;;;2.50;2.25;;;;;;;;;;5093698;28;20277;-65
2022/10/28 11:43:18;;;;;;;3.08;2.40;;;;;;;;;;5094851;28;20204;-65
2022/10/28 11:45:46;;;;;;;2.90;2.45;;;;;;;;;;5094649;28;20759;-65
2022/10/28 11:48:22;;;;;;;2.67;2.40;;;;;;;;;;5094079;28;20692;-65
2022/10/28 11:50:55;;;;;;;2.53;2.33;;;;;;;;;;5094396;28;20216;-65
2022/10/28 11:53:36;;;;;;;3.17;2.40;;;;;;;;;;5094178;28;20314;-65
2022/10/28 11:56:08;;;;;;;3.70;2.40;;;;;;;;;;5093755;28;20237;-65
2022/10/28 11:58:42;;;;;;;2.50;2.30;;;;;;;;;;5095100;28;20214;-65
2022/10/28 12:01:24;;;;;;;2.53;2.30;;;;;;;;;;5094689;28;20227;-64
2022/10/28 12:04:02;;;;;;;2.40;2.10;;;;;;;;;;5094936;28;20227;-64
2022/10/28 12:06:38;;;;;;;4.15;2.65;;;;;;;;;;5094524;28;20203;-65
2022/10/28 12:09:12;;;;;;;3.78;2.45;;;;;;;;;;5094609;28;20557;-64
2022/10/28 12:11:51;;;;;;;3.00;2.63;;;;;;;;;;5095443;28;20602;-65
2022/10/28 12:14:22;;;;;;;4.07;2.42;;;;;;;;;;5093657;28;20331;-65
2022/10/28 12:16:52;;;;;;;3.00;2.17;;;;;;;;;;5092981;28;20223;-65
2022/10/28 12:19:21;;;;;;;3.25;2.78;;;;;;;;;;5094119;28;20203;-64
2022/10/28 12:21:51;;;;;;;2.60;2.40;;;;;;;;;;5093770;28;20302;-65
2022/10/28 12:24:21;;;;;;;3.00;2.70;;;;;;;;;;5093253;28;20223;-65
2022/10/28 12:26:51;;;;;;;2.22;2.00;;;;;;;;;;5093871;28;20818;-65
2022/10/28 12:29:20;;;;;;;2.63;2.42;;;;;;;;;;5093375;28;20701;-65
2022/10/28 12:31:49;;;;;;;2.50;2.30;;;;;;;;;;5094386;28;20203;-64
2022/10/28 12:34:17;;;;;;;2.60;2.40;;;;;;;;;;5093986;28;20318;-64
2022/10/28 12:36:47;;;;;;;2.92;2.63;;;;;;;;;;5093645;28;20204;-64
2022/10/28 12:39:18;;;;;;;2.30;2.10;;;;;;;;;;5093112;28;20211;-64
2022/10/28 12:41:54;;;;;;;3.65;2.53;;;;;;;;;;5094694;28;20203;-64
2022/10/28 12:44:23;;;;;;;2.88;2.30;;;;;;;;;;5097590;28;20273;-64
2022/10/28 12:46:56;;;;;;;2.40;2.20;;;;;;;;;;5097573;28;20204;-64
2022/10/28 12:49:28;;;;;;;2.97;2.50;;;;;;;;;;5097649;28;20200;-65
2022/10/28 12:51:57;;;;;;;2.40;2.20;;;;;;;;;;5097077;28;20325;-64
2022/10/28 12:54:29;;;;;;;3.92;2.33;;;;;;;;;;5097137;28;20227;-64
2022/10/28 12:57:05;;;;;;;2.40;2.20;;;;;;;;;;5097538;28;20235;-64
2022/10/28 12:59:36;;;;;;;2.45;2.25;;;;;;;;;;5097484;28;20288;-64
2022/10/28 13:02:06;;;;;;;2.83;2.50;;;;;;;;;;5097054;28;20290;-64
2022/10/28 13:04:34;;;;;;;2.65;2.45;;;;;;;;;;5097754;28;20293;-64
2022/10/28 13:07:19;;;;;;;2.78;2.35;;;;;;;;;;5097591;28;20246;-65
2022/10/28 13:09:54;;;;;;;2.85;2.15;;;;;;;;;;5097484;28;20566;-64
2022/10/28 13:12:41;;;;;;;3.05;2.40;;;;;;;;;;5097307;28;20617;-64
2022/10/28 13:15:17;;;;;;;2.42;2.22;;;;;;;;;;5097294;28;20204;-64
2022/10/28 13:17:52;;;;;;;2.95;2.42;;;;;;;;;;5097197;28;20214;-65
2022/10/28 13:20:25;;;;;;;2.60;2.40;;;;;;;;;;5097342;28;20195;-65
2022/10/28 13:23:01;;;;;;;2.50;2.22;;;;;;;;;;5097797;28;20509;-64
2022/10/28 13:25:36;;;;;;;2.40;2.20;;;;;;;;;;5098037;28;20199;-65
2022/10/28 13:28:06;;;;;;;2.55;2.25;;;;;;;;;;5097598;28;20610;-65
2022/10/28 13:30:34;;;;;;;2.72;2.25;;;;;;;;;;5097489;28;20211;-65
2022/10/28 13:33:04;;;;;;;2.42;2.20;;;;;;;;;;5096929;28;20327;-65
2022/10/28 13:35:31;;;;;;;2.60;2.35;;;;;;;;;;5096029;28;20200;-65
2022/10/28 13:37:59;;;;;;;2.40;2.20;;;;;;;;;;5096799;28;20207;-64
2022/10/28 13:40:41;;;;;;;2.35;2.15;;;;;;;;;;5096472;28;20714;-64
2022/10/28 13:43:17;;;;;;;2.47;2.28;;;;;;;;;;5096110;28;20299;-64
2022/10/28 13:45:47;;;;;;;2.33;2.13;;;;;;;;;;5096366;28;20207;-64
2022/10/28 13:48:32;;;;;;;2.30;2.10;;;;;;;;;;5096263;28;20207;-64
2022/10/28 13:51:14;;;;;;;2.25;2.05;;;;;;;;;;5096571;28;20292;-64
2022/10/28 13:53:54;;;;;;;2.58;2.17;;;;;;;;;;5095458;28;20277;-64
2022/10/28 13:56:29;;;;;;;2.58;2.20;;;;;;;;;;5096503;28;20264;-65
2022/10/28 13:58:59;;;;;;;2.40;2.20;;;;;;;;;;5096291;28;20233;-64
2022/10/28 14:01:45;;;;;;;2.60;2.40;;;;;;;;;;5095941;28;20204;-65
2022/10/28 14:04:21;;;;;;;2.50;2.30;;;;;;;;;;5096017;28;20215;-64
2022/10/28 14:06:49;;;;;;;3.58;2.38;;;;;;;;;;5096272;28;20305;-65
2022/10/28 14:09:23;;;;;;;2.67;2.05;;;;;;;;;;5096926;28;20211;-65
2022/10/28 14:12:06;;;;;;;2.33;2.15;;;;;;;;;;5096329;28;20211;-65
2022/10/28 14:14:35;;;;;;;2.33;2.00;;;;;;;;;;5086865;28;20234;-65
2022/10/28 14:17:03;;;;;;;2.45;2.15;;;;;;;;;;5095321;28;20325;-65
2022/10/28 14:19:30;;;;;;;2.53;2.22;;;;;;;;;;5095065;28;20288;-65
2022/10/28 14:22:00;;;;;;;2.78;2.22;;;;;;;;;;5094783;28;20280;-64
2022/10/28 14:24:32;;;;;;;2.83;2.20;;;;;;;;;;5094759;28;20660;-64
2022/10/28 14:27:26;;;;;;;3.35;2.30;;;;;;;;;;5095664;28;20294;-64
2022/10/28 14:30:08;;;;;;;2.30;2.10;;;;;;;;;;5095191;28;20469;-64
2022/10/28 14:32:42;;;;;;;2.22;2.03;;;;;;;;;;5095805;28;20204;-65
2022/10/28 14:35:20;;;;;;;3.22;2.15;;;;;;;;;;5095688;28;20211;-64
2022/10/28 14:38:05;;;;;;;2.35;1.90;;;;;;;;;;5096148;28;20231;-64
2022/10/28 14:40:34;;;;;;;2.42;2.22;;;;;;;;;;5095646;28;20773;-64
2022/10/28 14:43:19;;;;;;;2.22;1.98;;;;;;;;;;5095841;28;20203;-64
2022/10/28 14:45:55;;;;;;;2.78;2.33;;;;;;;;;;5096345;28;20204;-64
2022/10/28 14:48:30;;;;;;;2.35;2.15;;;;;;;;;;5095578;28;20203;-64
2022/10/28 14:50:58;;;;;;;2.33;2.13;;;;;;;;;;5094709;28;20297;-64
2022/10/28 14:53:27;;;;;;;2.47;1.90;;;;;;;;;;5095421;28;20270;-64
2022/10/28 14:55:59;;;;;;;3.17;2.60;;;;;;;;;;5095916;28;20212;-64
2022/10/28 14:58:28;;;;;;;2.55;2.33;;;;;;;;;;5096283;28;20220;-64
2022/10/28 15:01:00;;;;;;;3.17;2.10;;;;;;;;;;5095990;28;20309;-64
2022/10/28 15:03:29;;;;;;;3.08;2.40;;;;;;;;;;5095858;28;20295;-64